createdAt,value
2023-01-20T00:00:34.935Z,30.2630
2023-01-20T00:01:37.246Z,30.2680
2023-01-20T00:02:39.647Z,30.2520
2023-01-20T00:03:41.913Z,30.2410
2023-01-20T00:04:44.058Z,30.2270
2023-01-20T00:05:46.241Z,30.2010
2023-01-20T00:06:48.405Z,30.1790
2023-01-20T00:07:50.595Z,30.1570
2023-01-20T00:08:52.829Z,30.1510
2023-01-20T00:09:54.963Z,30.0950
2023-01-20T00:10:57.183Z,30.1050
2023-01-20T00:11:59.420Z,30.1250
2023-01-20T00:12:29.427Z,30.1310
2023-01-20T00:13:31.626Z,30.0870
2023-01-20T00:14:33.864Z,30.0850
2023-01-20T00:15:36.043Z,30.0630
2023-01-20T00:16:38.267Z,30.0540
2023-01-20T00:17:40.477Z,30.0560
2023-01-20T00:18:42.718Z,30.0350
2023-01-20T00:19:44.948Z,30.0180
2023-01-20T00:20:47.154Z,30.0070
2023-01-20T00:21:49.350Z,30.0130
2023-01-20T00:22:51.562Z,30.0120
2023-01-20T00:23:51.637Z,29.9890
2023-01-20T00:24:53.880Z,29.9780
2023-01-20T00:25:56.120Z,29.9400
2023-01-20T00:26:58.425Z,29.9410
2023-01-20T00:28:00.778Z,29.9230
2023-01-20T00:29:03.087Z,29.8950
2023-01-20T00:30:05.568Z,29.8850
2023-01-20T00:31:07.747Z,29.8690
2023-01-20T00:32:07.836Z,29.8740
2023-01-20T00:33:10.164Z,29.8500
2023-01-20T00:34:12.486Z,29.8170
2023-01-20T00:35:15.290Z,29.7830
2023-01-20T00:36:17.141Z,29.7930
2023-01-20T00:37:19.476Z,29.7730
2023-01-20T00:38:19.538Z,29.7730
2023-01-20T00:39:21.820Z,29.7400
2023-01-20T00:40:24.239Z,29.7600
2023-01-20T00:41:26.484Z,29.7440
2023-01-20T00:42:28.842Z,29.7260
2023-01-20T00:43:31.231Z,29.7210
2023-01-20T00:44:31.351Z,29.6990
2023-01-20T00:45:33.792Z,29.6730
2023-01-20T00:46:36.246Z,29.6510
2023-01-20T00:47:38.496Z,29.6390
2023-01-20T00:48:38.726Z,29.6210
2023-01-20T00:49:41.087Z,29.6320
2023-01-20T00:50:43.537Z,29.6100
2023-01-20T00:51:45.744Z,29.5960
2023-01-20T00:52:48.075Z,29.5960
2023-01-20T00:53:48.250Z,29.5960
2023-01-20T00:54:50.573Z,29.5650
2023-01-20T00:55:52.933Z,29.5310
2023-01-20T00:56:55.218Z,29.5040
2023-01-20T00:57:57.562Z,29.5090
2023-01-20T00:58:59.918Z,29.5040
2023-01-20T01:00:00.129Z,29.5020
2023-01-20T01:01:02.545Z,29.5020
2023-01-20T01:02:04.904Z,29.4920
2023-01-20T01:03:07.138Z,29.4850
2023-01-20T01:04:09.542Z,29.4630
2023-01-20T01:05:09.749Z,29.4710
2023-01-20T01:06:12.154Z,29.4530
2023-01-20T01:07:14.459Z,29.4370
2023-01-20T01:08:16.829Z,29.4460
2023-01-20T01:09:24.251Z,29.5100
2023-01-20T01:10:25.775Z,29.4890
2023-01-20T01:11:28.014Z,29.4350
2023-01-20T01:12:30.301Z,29.4350
2023-01-20T01:13:32.615Z,29.3790
2023-01-20T01:14:32.819Z,29.3700
2023-01-20T01:15:35.120Z,29.3480
2023-01-20T01:16:37.544Z,29.3290
2023-01-20T01:17:39.788Z,29.3140
2023-01-20T01:18:42.127Z,29.3180
2023-01-20T01:19:44.449Z,29.3180
2023-01-20T01:20:29.614Z,29.3020
2023-01-20T01:21:31.942Z,29.2960
2023-01-20T01:22:34.412Z,29.3040
2023-01-20T01:23:36.524Z,29.3270
2023-01-20T01:24:36.702Z,29.3220
2023-01-20T01:25:39.052Z,29.2710
2023-01-20T01:26:41.372Z,29.2400
2023-01-20T01:27:43.677Z,29.2290
2023-01-20T01:28:45.961Z,29.2170
2023-01-20T01:29:48.316Z,29.2120
2023-01-20T01:30:48.486Z,29.2120
2023-01-20T01:31:50.711Z,29.1740
2023-01-20T01:32:53.207Z,29.1630
2023-01-20T01:33:55.349Z,29.1560
2023-01-20T01:34:57.649Z,29.1500
2023-01-20T01:35:59.963Z,29.1600
2023-01-20T01:37:02.279Z,29.1650
2023-01-20T01:38:02.493Z,29.1650
2023-01-20T01:39:04.797Z,29.1490
2023-01-20T01:40:07.094Z,29.1480
2023-01-20T01:41:09.435Z,29.1580
2023-01-20T01:42:11.773Z,29.1270
2023-01-20T01:43:12.211Z,29.1100
2023-01-20T01:44:14.234Z,29.0880
2023-01-20T01:45:16.954Z,29.0660
2023-01-20T01:46:18.829Z,29.0810
2023-01-20T01:47:21.204Z,29.0630
2023-01-20T01:48:23.589Z,29.0500
2023-01-20T01:49:23.762Z,29.0500
2023-01-20T01:50:26.120Z,29.0470
2023-01-20T01:51:28.489Z,29.0360
2023-01-20T01:52:30.853Z,29.0310
2023-01-20T01:53:33.276Z,29.0530
2023-01-20T01:54:33.463Z,29.0250
2023-01-20T01:55:35.896Z,29.0140
2023-01-20T01:56:38.212Z,29.0140
2023-01-20T01:57:40.577Z,29.0140
2023-01-20T01:58:40.800Z,28.9470
2023-01-20T01:59:43.136Z,28.9580
2023-01-20T02:00:45.558Z,28.9750
2023-01-20T02:01:47.999Z,28.9650
2023-01-20T02:02:48.078Z,28.9650
2023-01-20T02:03:50.611Z,28.9650
2023-01-20T02:04:52.786Z,28.9810
2023-01-20T02:05:55.156Z,28.9590
2023-01-20T02:06:38.172Z,28.9480
2023-01-20T02:07:40.506Z,28.9540
2023-01-20T02:08:42.862Z,28.9270
2023-01-20T02:09:45.200Z,28.9140
2023-01-20T02:10:47.478Z,28.9180
2023-01-20T02:11:49.796Z,28.9040
2023-01-20T02:12:49.936Z,28.8820
2023-01-20T02:13:52.279Z,28.8910
2023-01-20T02:14:54.626Z,28.8740
2023-01-20T02:15:56.898Z,28.8570
2023-01-20T02:16:59.158Z,28.8630
2023-01-20T02:18:01.456Z,28.8520
2023-01-20T02:19:01.639Z,28.8190
2023-01-20T02:20:04.029Z,28.6810
2023-01-20T02:21:06.336Z,28.2320
2023-01-20T02:22:08.691Z,28.6250
2023-01-20T02:23:10.985Z,28.6870
2023-01-20T02:24:11.197Z,28.6250
2023-01-20T02:25:13.927Z,28.6070
2023-01-20T02:26:15.913Z,28.5910
2023-01-20T02:27:18.235Z,28.5860
2023-01-20T02:28:20.624Z,28.5690
2023-01-20T02:29:20.793Z,28.5800
2023-01-20T02:30:23.224Z,28.5480
2023-01-20T02:31:25.518Z,28.5530
2023-01-20T02:32:27.834Z,28.5590
2023-01-20T02:33:30.168Z,28.5530
2023-01-20T02:34:32.499Z,28.5300
2023-01-20T02:35:32.739Z,28.5080
2023-01-20T02:36:35.077Z,28.5040
2023-01-20T02:37:37.436Z,28.5150
2023-01-20T02:38:39.810Z,28.5270
2023-01-20T02:39:40.026Z,28.5100
2023-01-20T02:40:42.409Z,28.5030
2023-01-20T02:41:44.739Z,28.5150
2023-01-20T02:42:47.074Z,28.4880
2023-01-20T02:43:47.297Z,28.5100
2023-01-20T02:44:49.636Z,28.4990
2023-01-20T02:45:52.096Z,28.4920
2023-01-20T02:46:54.419Z,28.5290
2023-01-20T02:49:20.808Z,28.5360
2023-01-20T02:50:23.005Z,28.4920
2023-01-20T02:51:25.338Z,28.4980
2023-01-20T02:52:25.445Z,28.4660
2023-01-20T02:53:27.812Z,28.4430
2023-01-20T02:54:30.115Z,28.4540
2023-01-20T02:55:32.383Z,28.4260
2023-01-20T02:56:34.653Z,28.4640
2023-01-20T02:57:36.877Z,28.4490
2023-01-20T02:58:36.999Z,28.4370
2023-01-20T02:59:39.360Z,28.4470
2023-01-20T03:00:41.726Z,28.4370
2023-01-20T03:01:44.257Z,28.4330
2023-01-20T03:02:46.468Z,28.4410
2023-01-20T03:03:46.725Z,28.4540
2023-01-20T03:04:48.989Z,28.4620
2023-01-20T03:05:51.341Z,28.4720
2023-01-20T03:06:53.744Z,28.4520
2023-01-20T03:07:56.008Z,28.4120
2023-01-20T03:08:56.191Z,28.4200
2023-01-20T03:09:58.545Z,28.4080
2023-01-20T03:11:00.917Z,28.3960
2023-01-20T03:12:03.328Z,28.4180
2023-01-20T03:13:03.544Z,28.3910
2023-01-20T03:14:05.915Z,28.3850
2023-01-20T03:15:08.248Z,28.3960
2023-01-20T03:16:10.613Z,28.3920
2023-01-20T03:17:12.984Z,28.3610
2023-01-20T03:18:15.233Z,28.3340
2023-01-20T03:19:15.390Z,28.3550
2023-01-20T03:20:17.735Z,28.3440
2023-01-20T03:21:20.077Z,28.3410
2023-01-20T03:22:22.432Z,28.3490
2023-01-20T03:23:24.758Z,28.3370
2023-01-20T03:24:27.097Z,28.3200
2023-01-20T03:25:27.289Z,28.3350
2023-01-20T03:26:29.649Z,28.3350
2023-01-20T03:27:32.077Z,28.3300
2023-01-20T03:28:34.323Z,28.3240
2023-01-20T03:29:34.474Z,28.3300
2023-01-20T03:30:36.903Z,28.3190
2023-01-20T03:31:39.349Z,28.2960
2023-01-20T03:32:41.592Z,28.3390
2023-01-20T03:33:43.928Z,28.3160
2023-01-20T03:34:44.135Z,28.3160
2023-01-20T03:35:46.481Z,28.3110
2023-01-20T03:36:48.837Z,28.3160
2023-01-20T03:37:51.253Z,28.3110
2023-01-20T03:38:53.554Z,28.2960
2023-01-20T03:39:53.767Z,28.2940
2023-01-20T03:40:56.074Z,28.2940
2023-01-20T03:41:58.419Z,28.2960
2023-01-20T03:43:00.822Z,28.2730
2023-01-20T03:44:03.134Z,28.2730
2023-01-20T03:45:03.343Z,28.2850
2023-01-20T03:46:05.794Z,28.2910
2023-01-20T03:47:08.122Z,28.2730
2023-01-20T03:48:10.623Z,28.2620
2023-01-20T03:49:10.774Z,28.2520
2023-01-20T03:50:13.161Z,28.2230
2023-01-20T03:51:15.584Z,28.2450
2023-01-20T03:52:17.949Z,28.2390
2023-01-20T03:53:20.290Z,28.2450
2023-01-20T03:54:22.613Z,28.2360
2023-01-20T03:55:24.951Z,28.2390
2023-01-20T03:56:27.257Z,28.2500
2023-01-20T03:57:29.614Z,28.2390
2023-01-20T03:58:31.972Z,28.2340
2023-01-20T03:59:32.134Z,28.2180
2023-01-20T04:00:34.483Z,28.2190
2023-01-20T04:01:36.980Z,28.2280
2023-01-20T04:02:39.186Z,28.2240
2023-01-20T04:03:39.545Z,28.2240
2023-01-20T04:04:41.785Z,28.2080
2023-01-20T04:05:44.126Z,28.2080
2023-01-20T04:06:46.463Z,28.2070
2023-01-20T04:07:48.820Z,28.2070
2023-01-20T04:08:49.052Z,28.2070
2023-01-20T04:09:51.418Z,28.2070
2023-01-20T04:10:53.796Z,28.1860
2023-01-20T04:11:56.145Z,28.1960
2023-01-20T04:12:56.390Z,28.1860
2023-01-20T04:13:58.828Z,28.1860
2023-01-20T04:15:01.209Z,28.1960
2023-01-20T04:16:03.695Z,28.1960
2023-01-20T04:17:03.863Z,28.2010
2023-01-20T04:18:06.235Z,28.1860
2023-01-20T04:19:08.607Z,28.1840
2023-01-20T04:20:10.946Z,28.1400
2023-01-20T04:21:13.246Z,28.1570
2023-01-20T04:22:13.438Z,28.1510
2023-01-20T04:23:15.783Z,28.1420
2023-01-20T04:24:18.176Z,28.1510
2023-01-20T04:25:20.496Z,28.1640
2023-01-20T04:26:22.884Z,28.1580
2023-01-20T04:27:23.087Z,28.1580
2023-01-20T04:28:25.451Z,28.1530
2023-01-20T04:29:27.895Z,28.1470
2023-01-20T04:30:30.310Z,28.1640
2023-01-20T04:31:31.611Z,28.1400
2023-01-20T04:32:32.924Z,28.1300
2023-01-20T04:33:35.263Z,28.1010
2023-01-20T04:34:37.619Z,28.1170
2023-01-20T04:35:37.811Z,28.1150
2023-01-20T04:36:40.171Z,28.1090
2023-01-20T04:37:42.544Z,28.1090
2023-01-20T04:38:44.875Z,28.1250
2023-01-20T04:39:45.116Z,28.1200
2023-01-20T04:40:47.443Z,28.1090
2023-01-20T04:41:49.775Z,28.1360
2023-01-20T04:42:52.119Z,28.1200
2023-01-20T04:43:54.439Z,28.1150
2023-01-20T04:44:56.794Z,28.1010
2023-01-20T04:45:56.930Z,28.0800
2023-01-20T04:46:59.266Z,28.0630
2023-01-20T04:48:01.581Z,28.1090
2023-01-20T04:49:03.943Z,28.1310
2023-01-20T04:50:06.372Z,28.1670
2023-01-20T04:51:06.589Z,28.1810
2023-01-20T04:52:08.914Z,28.1860
2023-01-20T04:53:11.273Z,28.2240
2023-01-20T04:54:13.638Z,28.2380
2023-01-20T04:55:16.351Z,28.2420
2023-01-20T04:56:16.271Z,28.2530
2023-01-20T04:57:18.678Z,28.2830
2023-01-20T04:58:21.032Z,28.2910
2023-01-20T04:59:23.372Z,28.2960
2023-01-20T05:00:23.634Z,28.2800
2023-01-20T05:01:26.093Z,28.3050
2023-01-20T05:02:28.417Z,28.2940
2023-01-20T05:03:30.681Z,28.3150
2023-01-20T05:04:33.079Z,28.2990
2023-01-20T05:05:33.312Z,28.2910
2023-01-20T05:06:35.695Z,28.2910
2023-01-20T05:07:38.060Z,28.2630
2023-01-20T05:08:40.420Z,28.2630
2023-01-20T05:09:40.605Z,28.2630
2023-01-20T05:10:42.989Z,28.2470
2023-01-20T05:11:45.350Z,28.2470
2023-01-20T05:12:47.724Z,28.2470
2023-01-20T05:13:50.103Z,28.2630
2023-01-20T05:14:50.333Z,28.2360
2023-01-20T05:15:52.888Z,28.2470
2023-01-20T05:16:55.137Z,28.2670
2023-01-20T05:17:55.392Z,28.2830
2023-01-20T05:18:57.799Z,28.3100
2023-01-20T05:20:00.165Z,28.3050
2023-01-20T05:21:02.556Z,28.3150
2023-01-20T05:22:02.741Z,28.2990
2023-01-20T05:23:05.089Z,28.3080
2023-01-20T05:24:07.435Z,28.3190
2023-01-20T05:25:09.811Z,28.3210
2023-01-20T05:26:12.236Z,28.3210
2023-01-20T05:27:12.423Z,28.3280
2023-01-20T05:28:14.785Z,27.6410
2023-01-20T05:29:17.155Z,27.4180
2023-01-20T05:30:19.522Z,27.8640
2023-01-20T05:31:19.909Z,28.1150
2023-01-20T05:32:22.126Z,28.1310
2023-01-20T05:33:24.462Z,28.2080
2023-01-20T05:34:26.850Z,28.2880
2023-01-20T05:35:29.227Z,28.3650
2023-01-20T05:36:29.490Z,28.4740
2023-01-20T05:37:31.833Z,28.5910
2023-01-20T05:38:34.165Z,28.6630
2023-01-20T05:39:36.529Z,28.7240
2023-01-20T05:40:38.884Z,28.7910
2023-01-20T05:41:39.212Z,28.8270
2023-01-20T05:42:41.427Z,28.8940
2023-01-20T05:43:43.807Z,28.9280
2023-01-20T05:44:46.143Z,28.9840
2023-01-20T05:45:48.504Z,29.0200
2023-01-20T05:46:48.732Z,29.0600
2023-01-20T05:47:51.069Z,29.1200
2023-01-20T05:48:53.417Z,29.1870
2023-01-20T05:49:55.785Z,29.2040
2023-01-20T05:50:55.981Z,29.2500
2023-01-20T05:51:58.398Z,29.2890
2023-01-20T05:53:00.755Z,29.3610
2023-01-20T05:55:14.842Z,29.5510
2023-01-20T05:56:14.241Z,29.5600
2023-01-20T05:57:16.566Z,29.5950
2023-01-20T05:58:17.728Z,29.5870
2023-01-20T05:59:19.062Z,29.5790
2023-01-20T06:00:19.256Z,29.5590
2023-01-20T06:01:21.607Z,29.5750
2023-01-20T06:02:24.057Z,29.6010
2023-01-20T06:03:26.308Z,29.6230
2023-01-20T06:04:28.597Z,29.6460
2023-01-20T06:05:28.750Z,29.6580
2023-01-20T06:06:31.059Z,29.6690
2023-01-20T06:07:33.444Z,29.6720
2023-01-20T06:08:35.823Z,29.6880
2023-01-20T06:09:38.125Z,29.6940
2023-01-20T06:10:38.338Z,29.7050
2023-01-20T06:11:40.719Z,29.7260
2023-01-20T06:12:43.019Z,29.7160
2023-01-20T06:13:45.292Z,29.7500
2023-01-20T06:14:47.580Z,29.7540
2023-01-20T06:15:49.946Z,29.8430
2023-01-20T06:16:50.058Z,29.8270
2023-01-20T06:17:52.498Z,29.8270
2023-01-20T06:18:54.697Z,29.8100
2023-01-20T06:19:56.991Z,29.7870
2023-01-20T06:20:59.282Z,29.7660
2023-01-20T06:22:01.603Z,29.7830
2023-01-20T06:23:03.917Z,29.7980
2023-01-20T06:24:04.060Z,29.8160
2023-01-20T06:25:06.354Z,29.8440
2023-01-20T06:26:06.552Z,29.8490
2023-01-20T06:27:08.845Z,29.8320
2023-01-20T06:28:11.191Z,29.8270
2023-01-20T06:29:11.279Z,29.8160
2023-01-20T06:30:13.582Z,29.8430
2023-01-20T06:31:16.033Z,29.8830
2023-01-20T06:32:18.244Z,29.8940
2023-01-20T06:33:20.591Z,29.8990
2023-01-20T06:34:22.870Z,29.4520
2023-01-20T06:35:25.225Z,28.7130
2023-01-20T06:36:27.465Z,28.8140
2023-01-20T06:37:29.768Z,28.7530
2023-01-20T06:38:32.114Z,29.0520
2023-01-20T06:39:34.461Z,28.9760
2023-01-20T06:40:36.814Z,29.1760
2023-01-20T06:41:37.035Z,29.3350
2023-01-20T06:42:39.415Z,29.2680
2023-01-20T06:43:41.839Z,29.2300
2023-01-20T06:44:44.163Z,29.2740
2023-01-20T06:45:44.335Z,29.2760
2023-01-20T06:46:48.285Z,29.2760
2023-01-20T06:47:49.081Z,29.2710
2023-01-20T06:48:51.499Z,29.2540
2023-01-20T06:49:53.820Z,29.2800
2023-01-20T06:50:54.057Z,29.2860
2023-01-20T06:51:56.366Z,29.2740
2023-01-20T06:52:58.666Z,28.5860
2023-01-20T06:54:01.004Z,28.9070
2023-01-20T06:55:03.334Z,29.1350
2023-01-20T06:56:03.521Z,29.1590
2023-01-20T06:57:05.788Z,29.1090
2023-01-20T06:58:08.106Z,29.0800
2023-01-20T06:59:10.472Z,29.0800
2023-01-20T07:00:12.780Z,29.0780
2023-01-20T07:01:15.281Z,29.1060
2023-01-20T07:02:15.478Z,29.0880
2023-01-20T07:03:17.680Z,29.0670
2023-01-20T07:04:20.042Z,29.0570
2023-01-20T07:05:22.387Z,29.0480
2023-01-20T07:06:24.754Z,29.0150
2023-01-20T07:07:24.921Z,29.0620
2023-01-20T07:08:27.254Z,29.0370
2023-01-20T07:09:29.618Z,29.0760
2023-01-20T07:10:31.972Z,29.0820
2023-01-20T07:11:32.190Z,29.0860
2023-01-20T07:12:34.553Z,29.1200
2023-01-20T07:13:36.946Z,29.1690
2023-01-20T07:14:39.332Z,29.1850
2023-01-20T07:15:41.675Z,29.1690
2023-01-20T07:16:41.900Z,29.1040
2023-01-20T07:17:44.179Z,29.1130
2023-01-20T07:18:46.480Z,29.1290
2023-01-20T07:19:48.852Z,29.1180
2023-01-20T07:20:51.158Z,29.1070
2023-01-20T07:21:53.480Z,29.0910
2023-01-20T07:22:55.783Z,29.1070
2023-01-20T07:23:58.133Z,29.0910
2023-01-20T07:24:58.363Z,29.0860
2023-01-20T07:26:00.702Z,29.0680
2023-01-20T07:27:03.009Z,29.0520
2023-01-20T07:28:03.200Z,29.0680
2023-01-20T07:29:05.522Z,29.0680
2023-01-20T07:30:07.899Z,29.0410
2023-01-20T07:31:10.391Z,29.0760
2023-01-20T07:32:12.508Z,29.0600
2023-01-20T07:33:12.695Z,29.0010
2023-01-20T07:34:15.041Z,29.0260
2023-01-20T07:35:17.398Z,29.0260
2023-01-20T07:36:19.631Z,29.0240
2023-01-20T07:37:19.792Z,29.0520
2023-01-20T07:38:22.163Z,29.0100
2023-01-20T07:39:22.328Z,29.0010
2023-01-20T07:40:24.761Z,28.9900
2023-01-20T07:41:26.975Z,28.9960
2023-01-20T07:42:29.299Z,28.9540
2023-01-20T07:43:31.640Z,28.8970
2023-01-20T07:44:31.836Z,28.8430
2023-01-20T07:45:34.205Z,28.8320
2023-01-20T07:46:36.461Z,28.8100
2023-01-20T07:47:38.810Z,28.8430
2023-01-20T07:48:41.116Z,28.8620
2023-01-20T07:49:41.316Z,28.8290
2023-01-20T07:50:43.696Z,28.8220
2023-01-20T07:51:46.003Z,28.8620
2023-01-20T07:52:48.343Z,28.8350
2023-01-20T07:53:50.695Z,28.7840
2023-01-20T07:54:50.905Z,28.7900
2023-01-20T07:55:53.247Z,28.8140
2023-01-20T07:56:55.580Z,28.7820
2023-01-20T07:57:57.953Z,28.7760
2023-01-20T07:59:00.326Z,28.7840
2023-01-20T08:00:00.605Z,28.7840
2023-01-20T08:01:03.147Z,28.8070
2023-01-20T08:02:05.419Z,28.8050
2023-01-20T08:03:07.759Z,28.7800
2023-01-20T08:04:07.942Z,28.8300
2023-01-20T08:05:10.334Z,28.9090
2023-01-20T08:06:12.611Z,29.0260
2023-01-20T08:07:14.884Z,29.0040
2023-01-20T08:08:17.221Z,29.0200
2023-01-20T08:09:17.408Z,29.0210
2023-01-20T08:10:19.810Z,29.0930
2023-01-20T08:11:22.217Z,29.2000
2023-01-20T08:12:24.574Z,29.6230
2023-01-20T08:13:26.924Z,29.7190
2023-01-20T08:14:27.170Z,29.8220
2023-01-20T08:15:29.563Z,29.8290
2023-01-20T08:16:32.057Z,29.8670
2023-01-20T08:17:34.380Z,30.0230
2023-01-20T08:18:34.632Z,30.1220
2023-01-20T08:19:37.001Z,30.0850
2023-01-20T08:20:39.375Z,30.0710
2023-01-20T08:21:41.867Z,30.1050
2023-01-20T08:22:44.139Z,30.1580
2023-01-20T08:23:44.379Z,30.1630
2023-01-20T08:24:46.753Z,30.2140
2023-01-20T08:25:49.114Z,30.2300
2023-01-20T08:26:49.449Z,30.2700
2023-01-20T08:27:51.892Z,30.3310
2023-01-20T08:28:54.034Z,30.3020
2023-01-20T08:29:56.409Z,30.3320
2023-01-20T08:30:58.850Z,30.2960
2023-01-20T08:31:59.032Z,30.2400
2023-01-20T08:33:01.376Z,30.2550
2023-01-20T08:34:03.687Z,30.3250
2023-01-20T08:35:06.076Z,30.3870
2023-01-20T08:36:06.300Z,30.2890
2023-01-20T08:37:08.761Z,30.3270
2023-01-20T08:38:11.108Z,30.4110
2023-01-20T08:39:13.482Z,30.4560
2023-01-20T08:40:15.832Z,30.4830
2023-01-20T08:41:16.047Z,30.5290
2023-01-20T08:42:18.530Z,30.4780
2023-01-20T08:43:20.789Z,30.5580
2023-01-20T08:44:23.108Z,30.6080
2023-01-20T08:45:25.475Z,30.6350
2023-01-20T08:46:25.728Z,30.5910
2023-01-20T08:47:28.103Z,30.6200
2023-01-20T08:48:30.339Z,30.6180
2023-01-20T08:49:32.701Z,30.6290
2023-01-20T08:50:35.074Z,30.6930
2023-01-20T08:51:35.388Z,30.7160
2023-01-20T08:52:37.780Z,30.7130
2023-01-20T08:53:40.164Z,30.7370
2023-01-20T08:54:40.417Z,30.7420
2023-01-20T08:55:42.823Z,30.7640
2023-01-20T08:56:45.182Z,30.7930
2023-01-20T08:57:47.602Z,30.8260
2023-01-20T08:58:49.976Z,30.8610
2023-01-20T08:59:50.206Z,30.8720
2023-01-20T09:00:52.602Z,30.9620
2023-01-20T09:01:55.022Z,30.9390
2023-01-20T09:02:55.306Z,30.9900
2023-01-20T09:04:05.739Z,31.0670
2023-01-20T09:05:00.024Z,31.0490
2023-01-20T09:06:02.415Z,31.0380
2023-01-20T09:07:02.628Z,31.0170
2023-01-20T09:08:04.987Z,30.9870
2023-01-20T09:09:07.310Z,30.9250
2023-01-20T09:10:09.691Z,30.9190
2023-01-20T09:11:12.039Z,31.1530
2023-01-20T09:12:12.228Z,31.1860
2023-01-20T09:13:14.665Z,31.4620
2023-01-20T09:14:17.063Z,31.5930
2023-01-20T09:15:19.434Z,31.5760
2023-01-20T09:16:19.861Z,31.6400
2023-01-20T09:17:22.083Z,31.6120
2023-01-20T09:18:24.491Z,31.7120
2023-01-20T09:19:26.853Z,31.8270
2023-01-20T09:20:27.053Z,31.8140
2023-01-20T09:21:29.387Z,31.8880
2023-01-20T09:22:31.734Z,31.9560
2023-01-20T09:23:34.122Z,31.8880
2023-01-20T09:24:36.499Z,31.8840
2023-01-20T09:25:36.735Z,31.8450
2023-01-20T09:26:39.209Z,31.9040
2023-01-20T09:27:41.466Z,31.9300
2023-01-20T09:28:43.872Z,31.9610
2023-01-20T09:29:46.201Z,32.0150
2023-01-20T09:30:46.439Z,32.0330
2023-01-20T09:31:48.873Z,32.0330
2023-01-20T09:32:51.047Z,32.1750
2023-01-20T09:33:53.417Z,32.1510
2023-01-20T09:34:53.523Z,32.1490
2023-01-20T09:35:55.856Z,32.2460
2023-01-20T09:36:58.195Z,32.1930
2023-01-20T09:38:00.533Z,32.2670
2023-01-20T09:39:02.885Z,32.2090
2023-01-20T09:40:05.245Z,32.2440
2023-01-20T09:41:07.523Z,32.3380
2023-01-20T09:42:09.812Z,32.3770
2023-01-20T09:43:12.163Z,32.3920
2023-01-20T09:44:14.518Z,32.3810
2023-01-20T09:45:17.117Z,32.3190
2023-01-20T09:46:39.040Z,32.5070
2023-01-20T09:48:41.174Z,32.5000
2023-01-20T09:49:41.467Z,32.5120
2023-01-20T09:50:43.701Z,32.5000
2023-01-20T09:51:46.057Z,32.4240
2023-01-20T09:52:48.432Z,32.4420
2023-01-20T09:53:50.798Z,32.4590
2023-01-20T09:54:51.081Z,32.4070
2023-01-20T09:55:53.384Z,32.4700
2023-01-20T09:56:55.711Z,32.4500
2023-01-20T09:57:45.153Z,32.5700
2023-01-20T09:59:43.340Z,32.4690
2023-01-20T10:00:45.756Z,32.6110
2023-01-20T10:01:48.150Z,32.6280
2023-01-20T10:02:50.442Z,32.6330
2023-01-20T10:03:50.673Z,32.5940
2023-01-20T10:04:53.053Z,32.5000
2023-01-20T10:05:55.470Z,32.6760
2023-01-20T10:06:57.806Z,32.6460
2023-01-20T10:08:00.181Z,32.6000
2023-01-20T10:09:06.081Z,32.7310
2023-01-20T10:10:02.752Z,32.7260
2023-01-20T10:11:05.237Z,32.6650
2023-01-20T10:12:07.473Z,32.6790
2023-01-20T10:13:07.635Z,32.7010
2023-01-20T10:14:09.948Z,32.7220
2023-01-20T10:15:12.276Z,32.6780
2023-01-20T10:16:14.710Z,32.7970
2023-01-20T10:17:16.926Z,32.8710
2023-01-20T10:18:19.281Z,32.8100
2023-01-20T10:19:19.458Z,32.7560
2023-01-20T10:20:21.797Z,32.7770
2023-01-20T10:21:24.343Z,32.6580
2023-01-20T10:22:26.496Z,32.6580
2023-01-20T10:23:28.775Z,32.6430
2023-01-20T10:24:28.926Z,32.6420
2023-01-20T10:25:31.253Z,32.6890
2023-01-20T10:26:33.620Z,32.6310
2023-01-20T10:27:35.926Z,32.6310
2023-01-20T10:28:38.283Z,32.5990
2023-01-20T10:29:40.601Z,32.6050
2023-01-20T10:30:40.831Z,32.6690
2023-01-20T10:31:43.292Z,32.5680
2023-01-20T10:32:45.495Z,32.6310
2023-01-20T10:33:47.798Z,32.6360
2023-01-20T10:34:50.110Z,32.5430
2023-01-20T10:35:50.305Z,32.5930
2023-01-20T10:36:52.671Z,32.5100
2023-01-20T10:37:54.979Z,32.4620
2023-01-20T10:38:57.306Z,32.4790
2023-01-20T10:39:59.649Z,32.4900
2023-01-20T10:40:59.816Z,32.4330
2023-01-20T10:42:02.208Z,32.3880
2023-01-20T10:43:04.508Z,32.3320
2023-01-20T10:44:06.793Z,32.1190
2023-01-20T10:45:09.136Z,32.0450
2023-01-20T10:46:12.530Z,31.9560
2023-01-20T10:47:13.635Z,32.0020
2023-01-20T10:48:14.000Z,31.9030
2023-01-20T10:49:16.333Z,31.7780
2023-01-20T10:50:18.713Z,31.7060
2023-01-20T10:51:21.076Z,31.6480
2023-01-20T10:52:21.252Z,31.6020
2023-01-20T10:53:23.580Z,31.5850
2023-01-20T10:54:25.966Z,31.5670
2023-01-20T10:55:28.320Z,31.5550
2023-01-20T10:56:32.763Z,31.4330
2023-01-20T10:57:30.916Z,31.4330
2023-01-20T10:58:33.213Z,31.3800
2023-01-20T10:59:35.502Z,31.2890
2023-01-20T11:00:37.809Z,31.2180
2023-01-20T11:01:40.246Z,31.2000
2023-01-20T11:02:40.519Z,31.1270
2023-01-20T11:03:42.608Z,31.0280
2023-01-20T11:04:44.857Z,30.8870
2023-01-20T11:05:47.128Z,30.8660
2023-01-20T11:06:49.418Z,30.7940
2023-01-20T11:07:51.844Z,30.7360
2023-01-20T11:08:54.056Z,30.5300
2023-01-20T11:09:54.230Z,30.3790
2023-01-20T11:10:56.551Z,30.3440
2023-01-20T11:11:56.733Z,30.3200
2023-01-20T11:12:59.122Z,30.3480
2023-01-20T11:14:01.397Z,30.3030
2023-01-20T11:15:01.623Z,30.2600
2023-01-20T11:16:04.018Z,30.1910
2023-01-20T11:17:06.379Z,30.1790
2023-01-20T11:18:08.896Z,30.2000
2023-01-20T11:19:08.982Z,30.1950
2023-01-20T11:20:11.357Z,30.2560
2023-01-20T11:21:13.765Z,30.2760
2023-01-20T11:22:16.129Z,30.2870
2023-01-20T11:23:16.410Z,30.3110
2023-01-20T11:24:18.779Z,30.3660
2023-01-20T11:25:21.186Z,30.4580
2023-01-20T11:26:25.015Z,30.5310
2023-01-20T11:27:25.982Z,30.5590
2023-01-20T11:28:26.238Z,30.4820
2023-01-20T11:29:28.631Z,30.4670
2023-01-20T11:30:31.047Z,30.4560
2023-01-20T11:31:33.449Z,30.4390
2023-01-20T11:32:33.616Z,30.4250
2023-01-20T11:33:36.068Z,30.4470
2023-01-20T11:34:38.352Z,30.4470
2023-01-20T11:35:40.752Z,30.4430
2023-01-20T11:36:41.001Z,30.3850
2023-01-20T11:37:43.434Z,30.3800
2023-01-20T11:38:45.908Z,30.3320
2023-01-20T11:39:48.171Z,30.3400
2023-01-20T11:40:48.372Z,30.3400
2023-01-20T11:41:50.664Z,30.3250
2023-01-20T11:42:52.988Z,30.3090
2023-01-20T11:43:55.356Z,30.2710
2023-01-20T11:45:08.520Z,30.2400
2023-01-20T11:45:59.966Z,30.2920
2023-01-20T11:47:02.284Z,30.3050
2023-01-20T11:48:02.440Z,30.2770
2023-01-20T11:49:04.842Z,30.3240
2023-01-20T11:50:07.144Z,30.3400
2023-01-20T11:51:09.530Z,30.3250
2023-01-20T11:52:11.887Z,30.3030
2023-01-20T11:53:14.229Z,30.3090
2023-01-20T11:54:16.709Z,30.3250
2023-01-20T11:55:16.845Z,30.2340
2023-01-20T11:56:19.236Z,30.2400
2023-01-20T11:57:21.570Z,29.3460
2023-01-20T11:58:23.933Z,29.2990
2023-01-20T11:59:26.334Z,29.3940
2023-01-20T12:00:26.571Z,29.4070
2023-01-20T12:01:28.911Z,29.3570
2023-01-20T12:02:12.048Z,29.4280
2023-01-20T12:03:12.166Z,29.4020
2023-01-20T12:04:14.756Z,29.4060
2023-01-20T12:05:16.917Z,29.3720
2023-01-20T12:06:19.272Z,29.2720
2023-01-20T12:07:19.480Z,29.2790
2023-01-20T12:08:21.913Z,29.3350
2023-01-20T12:09:24.230Z,29.2620
2023-01-20T12:10:26.648Z,29.3440
2023-01-20T12:11:28.992Z,29.3290
2023-01-20T12:12:29.211Z,29.2450
2023-01-20T12:13:31.609Z,29.2090
2023-01-20T12:14:33.945Z,29.2100
2023-01-20T12:15:36.272Z,29.3640
2023-01-20T12:16:38.637Z,29.2570
2023-01-20T12:17:38.731Z,29.1930
2023-01-20T12:18:50.334Z,29.1830
2023-01-20T12:19:43.517Z,29.2380
2023-01-20T12:20:54.672Z,29.3670
2023-01-20T12:21:48.041Z,29.4270
2023-01-20T12:22:50.371Z,29.5650
2023-01-20T12:23:50.542Z,29.6320
2023-01-20T12:24:52.932Z,29.6590
2023-01-20T12:25:55.298Z,29.6820
2023-01-20T12:26:57.618Z,29.7100
2023-01-20T12:28:18.780Z,29.6580
2023-01-20T12:29:19.518Z,29.5920
2023-01-20T12:30:23.193Z,29.6210
2023-01-20T12:31:24.263Z,29.6590
2023-01-20T12:32:26.312Z,29.3980